createdAt,value
2022-10-11T00:01:28.818Z,12.00
2022-10-11T00:03:55.665Z,11.93
2022-10-11T00:06:22.146Z,11.93
2022-10-11T00:08:48.291Z,11.93
2022-10-11T00:11:14.545Z,11.92
2022-10-11T00:13:40.912Z,11.95
2022-10-11T00:16:09.565Z,11.96
2022-10-11T00:18:36.763Z,11.87
2022-10-11T00:21:05.729Z,11.91
2022-10-11T00:23:32.485Z,11.84
2022-10-11T00:26:04.250Z,11.79
2022-10-11T00:28:31.182Z,11.80
2022-10-11T00:30:57.455Z,11.77
2022-10-11T00:33:23.697Z,11.77
2022-10-11T00:35:50.280Z,11.74
2022-10-11T00:38:17.304Z,11.73
2022-10-11T00:40:43.789Z,11.69
2022-10-11T00:43:18.711Z,11.76
2022-10-11T00:45:56.665Z,11.76
2022-10-11T00:48:37.206Z,11.75
2022-10-11T00:51:09.442Z,11.90
2022-10-11T00:53:35.898Z,11.98
2022-10-11T00:56:09.010Z,12.00
2022-10-11T00:58:36.172Z,12.04
2022-10-11T01:01:03.582Z,12.04
2022-10-11T01:03:31.693Z,12.08
2022-10-11T01:05:58.065Z,12.15
2022-10-11T01:08:26.225Z,12.19
2022-10-11T01:10:52.655Z,12.24
2022-10-11T01:13:44.777Z,12.32
2022-10-11T01:16:16.545Z,12.36
2022-10-11T01:19:05.455Z,12.42
2022-10-11T01:21:37.606Z,12.46
2022-10-11T01:24:28.046Z,12.49
2022-10-11T01:27:12.850Z,12.58
2022-10-11T01:30:16.702Z,12.69
2022-10-11T01:32:48.237Z,12.78
2022-10-11T01:35:34.386Z,12.78
2022-10-11T01:38:17.177Z,12.86
2022-10-11T01:40:52.085Z,12.88
2022-10-11T01:43:20.905Z,12.94
2022-10-11T01:45:52.567Z,12.94
2022-10-11T01:48:18.823Z,12.96
2022-10-11T01:50:49.626Z,12.99
2022-10-11T01:53:43.531Z,13.06
2022-10-11T01:56:38.752Z,13.07
2022-10-11T01:59:08.392Z,13.07
2022-10-11T02:02:05.280Z,13.08
2022-10-11T02:04:42.828Z,13.14
2022-10-11T02:07:18.748Z,13.12
2022-10-11T02:09:47.955Z,13.11
2022-10-11T02:12:20.044Z,13.16
2022-10-11T02:14:50.172Z,13.21
2022-10-11T02:17:22.029Z,13.19
2022-10-11T02:19:52.742Z,13.23
2022-10-11T02:22:25.648Z,13.24
2022-10-11T02:24:56.029Z,13.19
2022-10-11T02:27:25.957Z,13.21
2022-10-11T02:29:54.562Z,13.24
2022-10-11T02:32:24.810Z,13.22
2022-10-11T02:34:56.817Z,13.19
2022-10-11T02:37:41.605Z,13.21
2022-10-11T02:40:24.531Z,13.22
2022-10-11T02:42:58.516Z,13.24
2022-10-11T02:45:34.065Z,13.22
2022-10-11T02:48:00.746Z,13.24
2022-10-11T02:50:27.274Z,13.28
2022-10-11T02:52:53.437Z,13.30
2022-10-11T02:55:19.776Z,13.16
2022-10-11T02:57:46.355Z,13.09
2022-10-11T03:00:13.266Z,13.05
2022-10-11T03:02:39.454Z,13.07
2022-10-11T03:05:05.920Z,12.97
2022-10-11T03:07:32.750Z,12.99
2022-10-11T03:09:58.831Z,12.88
2022-10-11T03:12:25.207Z,12.89
2022-10-11T03:14:52.354Z,12.83
2022-10-11T03:17:35.761Z,12.84
2022-10-11T03:20:05.379Z,12.79
2022-10-11T03:22:31.877Z,12.69
2022-10-11T03:25:03.370Z,12.69
2022-10-11T03:27:31.874Z,12.71
2022-10-11T03:29:58.038Z,12.67
2022-10-11T03:32:24.756Z,12.61
2022-10-11T03:34:51.319Z,12.53
2022-10-11T03:37:17.820Z,12.55
2022-10-11T03:39:45.000Z,12.50
2022-10-11T03:42:12.296Z,12.42
2022-10-11T03:44:38.445Z,12.27
2022-10-11T03:47:05.396Z,12.33
2022-10-11T03:49:31.818Z,12.33
2022-10-11T03:51:57.965Z,12.29
2022-10-11T03:54:24.249Z,12.33
2022-10-11T03:56:50.598Z,12.10
2022-10-11T03:59:17.011Z,12.13
2022-10-11T04:01:43.395Z,12.06
2022-10-11T04:04:09.990Z,12.01
2022-10-11T04:06:36.196Z,11.88
2022-10-11T04:09:03.057Z,11.91
2022-10-11T04:11:29.427Z,11.90
2022-10-11T04:13:56.245Z,11.85
2022-10-11T04:16:22.405Z,11.72
2022-10-11T04:18:48.738Z,11.74
2022-10-11T04:21:14.961Z,11.73
2022-10-11T04:23:41.255Z,11.74
2022-10-11T04:26:08.368Z,11.65
2022-10-11T04:28:35.395Z,11.61
2022-10-11T04:31:03.534Z,11.65
2022-10-11T04:33:30.445Z,11.59
2022-10-11T04:35:56.690Z,11.68
2022-10-11T04:38:23.460Z,11.66
2022-10-11T04:40:50.185Z,11.69
2022-10-11T04:43:17.872Z,11.69
2022-10-11T04:45:44.693Z,11.67
2022-10-11T04:48:11.120Z,11.66
2022-10-11T04:50:37.495Z,11.63
2022-10-11T04:53:07.485Z,11.56
2022-10-11T04:55:33.932Z,11.54
2022-10-11T04:58:01.449Z,11.51
2022-10-11T05:00:27.818Z,11.50
2022-10-11T05:02:54.579Z,11.40
2022-10-11T05:05:20.798Z,11.33
2022-10-11T05:07:47.345Z,11.36
2022-10-11T05:10:14.289Z,11.31
2022-10-11T05:12:40.623Z,11.18
2022-10-11T05:15:07.514Z,11.16
2022-10-11T05:17:34.337Z,11.16
2022-10-11T05:20:00.650Z,11.17
2022-10-11T05:22:26.956Z,11.13
2022-10-11T05:24:53.542Z,11.02
2022-10-11T05:27:19.660Z,11.09
2022-10-11T05:29:45.871Z,11.12
2022-10-11T05:32:12.479Z,11.09
2022-10-11T05:34:38.639Z,11.20
2022-10-11T05:37:05.286Z,11.23
2022-10-11T05:39:31.719Z,11.41
2022-10-11T05:41:57.918Z,11.46
2022-10-11T05:44:24.620Z,11.58
2022-10-11T05:46:50.836Z,11.77
2022-10-11T05:49:16.987Z,11.84
2022-10-11T05:51:43.359Z,11.94
2022-10-11T05:54:09.528Z,12.06
2022-10-11T05:56:35.728Z,12.17
2022-10-11T05:59:03.466Z,12.18
2022-10-11T06:01:30.006Z,12.31
2022-10-11T06:03:56.233Z,12.49
2022-10-11T06:06:22.823Z,12.62
2022-10-11T06:08:49.545Z,12.74
2022-10-11T06:11:21.736Z,12.77
2022-10-11T06:13:48.269Z,12.96
2022-10-11T06:16:15.304Z,13.63
2022-10-11T06:18:41.548Z,13.37
2022-10-11T06:21:07.870Z,13.18
2022-10-11T06:23:34.285Z,13.08
2022-10-11T06:26:07.355Z,13.02
2022-10-11T06:28:35.480Z,12.97
2022-10-11T06:31:04.037Z,12.84
2022-10-11T06:33:30.376Z,12.90
2022-10-11T06:36:02.059Z,12.85
2022-10-11T06:38:28.678Z,12.92
2022-10-11T06:40:55.027Z,12.90
2022-10-11T06:43:22.021Z,12.75
2022-10-11T06:45:48.708Z,12.78
2022-10-11T06:48:15.031Z,12.76
2022-10-11T06:50:59.205Z,12.73
2022-10-11T06:53:27.320Z,12.79
2022-10-11T06:55:53.566Z,12.75
2022-10-11T06:58:19.789Z,12.68
2022-10-11T07:00:46.233Z,12.79
2022-10-11T07:03:12.451Z,12.88
2022-10-11T07:05:38.629Z,12.94
2022-10-11T07:08:04.959Z,13.01
2022-10-11T07:10:31.095Z,13.08
2022-10-11T07:12:57.561Z,13.17
2022-10-11T07:15:24.024Z,13.31
2022-10-11T07:17:50.223Z,13.54
2022-10-11T07:20:16.816Z,13.52
2022-10-11T07:22:43.322Z,13.51
2022-10-11T07:25:11.173Z,13.55
2022-10-11T07:27:37.482Z,13.77
2022-10-11T07:30:04.766Z,13.76
2022-10-11T07:32:31.170Z,13.82
2022-10-11T07:34:57.872Z,13.75
2022-10-11T07:37:24.420Z,13.66
2022-10-11T07:39:50.768Z,13.50
2022-10-11T07:42:17.729Z,13.39
2022-10-11T07:44:44.276Z,13.38
2022-10-11T07:47:11.513Z,13.35
2022-10-11T07:49:37.980Z,13.42
2022-10-11T07:52:04.745Z,13.43
2022-10-11T07:54:32.189Z,13.58
2022-10-11T07:56:58.508Z,13.72
2022-10-11T07:59:24.961Z,13.16
2022-10-11T08:01:52.338Z,13.24
2022-10-11T08:04:20.742Z,13.80
2022-10-11T08:06:51.100Z,13.91
2022-10-11T08:09:21.074Z,13.68
2022-10-11T08:11:47.507Z,14.06
2022-10-11T08:14:13.903Z,14.22
2022-10-11T08:16:40.494Z,14.29
2022-10-11T08:19:07.117Z,14.63
2022-10-11T08:21:34.099Z,14.81
2022-10-11T08:24:02.327Z,14.87
2022-10-11T08:26:29.140Z,14.80
2022-10-11T08:28:55.533Z,15.13
2022-10-11T08:31:21.784Z,15.39
2022-10-11T08:33:48.704Z,15.46
2022-10-11T08:36:14.955Z,15.07
2022-10-11T08:38:41.493Z,14.96
2022-10-11T08:41:28.575Z,15.29
2022-10-11T08:44:03.820Z,15.00
2022-10-11T08:46:33.001Z,14.77
2022-10-11T08:49:01.077Z,14.51
2022-10-11T08:51:35.176Z,14.50
2022-10-11T08:54:32.652Z,14.73
2022-10-11T08:57:01.767Z,14.54
2022-10-11T08:59:51.277Z,14.89
2022-10-11T09:03:03.024Z,14.97
2022-10-11T09:05:27.239Z,14.97
2022-10-11T09:08:09.855Z,15.35
2022-10-11T09:10:45.371Z,15.64
2022-10-11T09:13:43.159Z,15.81
2022-10-11T09:16:30.128Z,15.90
2022-10-11T09:19:09.266Z,15.79
2022-10-11T09:22:01.140Z,15.76
2022-10-11T09:24:46.656Z,15.98
2022-10-11T09:27:57.712Z,16.06
2022-10-11T09:30:20.571Z,15.93
2022-10-11T09:32:54.419Z,16.17
2022-10-11T09:35:21.946Z,16.15
2022-10-11T09:37:58.630Z,16.40
2022-10-11T09:40:52.642Z,16.29
2022-10-11T09:43:19.249Z,16.34
2022-10-11T09:45:49.472Z,16.37
2022-10-11T09:48:21.556Z,16.49
2022-10-11T09:50:49.842Z,16.54
2022-10-11T09:53:16.528Z,16.62
2022-10-11T09:56:00.985Z,16.68
2022-10-11T09:58:31.052Z,16.60
2022-10-11T10:01:08.346Z,16.25
2022-10-11T10:03:41.491Z,16.20
2022-10-11T10:06:22.643Z,16.41
2022-10-11T10:08:49.938Z,16.45
2022-10-11T10:11:17.982Z,16.51
2022-10-11T10:13:50.998Z,16.75
2022-10-11T10:16:24.466Z,16.25
2022-10-11T10:18:58.288Z,16.50
2022-10-11T10:21:29.351Z,16.72
2022-10-11T10:23:59.445Z,16.78
2022-10-11T10:26:26.531Z,16.62
2022-10-11T10:29:07.900Z,16.82
2022-10-11T10:32:01.548Z,16.95
2022-10-11T10:34:29.488Z,17.15
2022-10-11T10:37:18.438Z,17.28
2022-10-11T10:39:51.963Z,17.54
2022-10-11T10:42:19.755Z,17.49
2022-10-11T10:44:57.751Z,17.54
2022-10-11T10:47:42.580Z,17.71
2022-10-11T10:50:16.258Z,17.98
2022-10-11T10:53:15.439Z,18.12
2022-10-11T10:55:51.188Z,17.92
2022-10-11T10:58:32.411Z,17.84
2022-10-11T11:01:05.136Z,17.83
2022-10-11T11:03:38.625Z,17.66
2022-10-11T11:06:19.546Z,17.57
2022-10-11T11:08:49.011Z,17.31
2022-10-11T11:11:50.065Z,17.27
2022-10-11T11:14:25.522Z,17.19
2022-10-11T11:17:05.560Z,17.00
2022-10-11T11:20:02.520Z,16.76
2022-10-11T11:22:40.627Z,16.70
2022-10-11T11:25:23.473Z,16.80
2022-10-11T11:28:00.978Z,16.92
2022-10-11T11:30:59.960Z,17.24
2022-10-11T11:33:53.594Z,17.16
2022-10-11T11:36:32.721Z,17.03
2022-10-11T11:39:01.414Z,16.78
2022-10-11T11:41:36.134Z,16.72
2022-10-11T11:44:05.627Z,16.55
2022-10-11T11:46:37.775Z,16.93
2022-10-11T11:49:13.165Z,17.23
2022-10-11T11:51:44.998Z,17.28
2022-10-11T11:54:27.686Z,17.22
2022-10-11T11:57:15.042Z,17.33
2022-10-11T11:59:57.112Z,17.64
2022-10-11T12:02:29.637Z,17.81
2022-10-11T12:04:57.156Z,17.61
2022-10-11T12:07:25.961Z,17.79
2022-10-11T12:10:13.878Z,17.77
2022-10-11T12:12:40.871Z,17.35
2022-10-11T12:15:28.671Z,16.99
2022-10-11T12:17:57.497Z,16.65
2022-10-11T12:20:30.897Z,16.81
2022-10-11T12:23:01.675Z,16.82
2022-10-11T12:25:28.126Z,16.87
2022-10-11T12:27:56.705Z,16.72
2022-10-11T12:30:47.831Z,16.44
2022-10-11T12:33:32.600Z,16.29
2022-10-11T12:36:07.259Z,16.37
2022-10-11T12:38:38.674Z,16.42
2022-10-11T12:41:08.108Z,16.42
2022-10-11T12:44:14.288Z,16.54
2022-10-11T12:46:59.757Z,16.77
2022-10-11T12:49:54.186Z,16.50
2022-10-11T12:52:35.049Z,16.70
2022-10-11T12:55:36.607Z,16.66
2022-10-11T12:58:14.912Z,16.72
2022-10-11T13:01:02.973Z,16.60
2022-10-11T13:03:41.342Z,17.08
2022-10-11T13:06:16.973Z,17.29
2022-10-11T13:08:48.472Z,17.53
2022-10-11T13:11:26.759Z,17.57
2022-10-11T13:14:05.958Z,17.72
2022-10-11T13:16:47.067Z,17.82
2022-10-11T13:19:14.551Z,17.97
2022-10-11T13:21:41.465Z,18.07
2022-10-11T13:24:18.864Z,18.16
2022-10-11T13:26:48.530Z,17.96
2022-10-11T13:29:37.639Z,17.86
2022-10-11T13:32:10.312Z,17.92
2022-10-11T13:34:39.824Z,17.73
2022-10-11T13:37:14.597Z,17.69
2022-10-11T13:39:41.176Z,17.10
2022-10-11T13:42:12.772Z,17.18
2022-10-11T13:44:40.832Z,17.20
2022-10-11T13:47:12.584Z,17.29
2022-10-11T13:49:43.442Z,17.16
2022-10-11T13:52:22.189Z,17.25
2022-10-11T13:55:08.424Z,17.32
2022-10-11T13:57:46.471Z,17.14
2022-10-11T14:00:16.801Z,16.87
2022-10-11T14:02:50.578Z,16.53
2022-10-11T14:05:31.536Z,16.32
2022-10-11T14:08:01.888Z,16.24
2022-10-11T14:10:29.046Z,16.11
2022-10-11T14:13:21.060Z,16.09
2022-10-11T14:16:03.472Z,15.93
2022-10-11T14:18:39.653Z,16.13
2022-10-11T14:21:18.253Z,16.11
2022-10-11T14:23:56.131Z,16.08
2022-10-11T14:26:24.924Z,16.17
2022-10-11T14:28:57.166Z,16.02
2022-10-11T14:31:25.594Z,16.05
2022-10-11T14:33:53.262Z,16.19
2022-10-11T14:36:22.454Z,16.27
2022-10-11T14:38:52.531Z,16.36
2022-10-11T14:41:19.135Z,16.38
2022-10-11T14:43:45.682Z,16.32
2022-10-11T14:46:25.584Z,16.23
2022-10-11T14:48:56.702Z,16.28
2022-10-11T14:51:34.192Z,16.33
2022-10-11T14:54:00.907Z,16.32
2022-10-11T14:56:27.728Z,16.25
2022-10-11T14:58:54.418Z,16.20
2022-10-11T15:01:21.328Z,16.22
2022-10-11T15:03:47.654Z,16.11
2022-10-11T15:06:24.363Z,16.01
2022-10-11T15:08:51.105Z,16.07
2022-10-11T15:11:19.905Z,16.01
2022-10-11T15:13:47.516Z,15.94
2022-10-11T15:16:16.872Z,15.86
2022-10-11T15:18:43.436Z,15.80
2022-10-11T15:21:13.718Z,15.65
2022-10-11T15:23:39.890Z,15.47
2022-10-11T15:26:09.435Z,15.52
2022-10-11T15:28:35.774Z,15.57
2022-10-11T15:31:01.990Z,15.57
2022-10-11T15:33:28.573Z,15.55
2022-10-11T15:35:54.713Z,15.47
2022-10-11T15:38:23.697Z,15.46
2022-10-11T15:40:51.086Z,15.39
2022-10-11T15:43:23.519Z,15.22
2022-10-11T15:45:51.770Z,15.11
2022-10-11T15:48:19.833Z,14.96
2022-10-11T15:50:46.908Z,14.82
2022-10-11T15:53:16.179Z,14.69
2022-10-11T15:55:51.466Z,14.55
2022-10-11T15:58:26.615Z,14.47
2022-10-11T16:00:54.812Z,14.36
2022-10-11T16:03:27.585Z,14.28
2022-10-11T16:05:54.667Z,14.19
2022-10-11T16:08:21.299Z,14.08
2022-10-11T16:10:48.377Z,14.01
2022-10-11T16:13:15.043Z,13.90
2022-10-11T16:15:42.677Z,13.82
2022-10-11T16:18:11.565Z,13.72
2022-10-11T16:20:39.481Z,13.56
2022-10-11T16:23:06.694Z,13.45
2022-10-11T16:25:33.639Z,13.42
2022-10-11T16:28:00.239Z,13.25
2022-10-11T16:30:27.118Z,13.20
2022-10-11T16:32:53.850Z,13.12
2022-10-11T16:35:20.522Z,13.21
2022-10-11T16:37:47.052Z,13.12
2022-10-11T16:40:19.700Z,12.96
2022-10-11T16:42:47.004Z,12.84
2022-10-11T16:45:15.256Z,12.80
2022-10-11T16:47:42.688Z,12.80
2022-10-11T16:50:10.419Z,12.74
2022-10-11T16:52:36.997Z,12.68
2022-10-11T16:55:03.619Z,12.56
2022-10-11T16:57:30.048Z,12.42
2022-10-11T16:59:56.686Z,12.32
2022-10-11T17:02:29.929Z,12.29
2022-10-11T17:04:59.016Z,12.18
2022-10-11T17:07:25.689Z,12.05
2022-10-11T17:09:51.875Z,11.96
2022-10-11T17:12:21.044Z,11.94
2022-10-11T17:14:47.621Z,11.86
2022-10-11T17:17:15.669Z,11.76
2022-10-11T17:23:40.961Z,11.23
2022-10-11T17:31:52.845Z,10.84
2022-10-11T17:34:19.880Z,10.87
2022-10-11T17:36:46.783Z,10.85
2022-10-11T17:39:16.666Z,10.87
2022-10-11T17:41:43.962Z,10.86
2022-10-11T17:44:11.976Z,10.85
2022-10-11T17:46:39.125Z,10.79
2022-10-11T17:49:07.323Z,10.78
2022-10-11T17:51:36.198Z,10.83
2022-10-11T17:54:04.231Z,10.80
2022-10-11T17:56:36.611Z,10.73
2022-10-11T17:59:07.473Z,10.70
2022-10-11T18:01:34.585Z,10.67
2022-10-11T18:04:03.670Z,10.59
2022-10-11T18:06:37.944Z,10.54
2022-10-11T18:09:05.032Z,10.56
2022-10-11T18:11:33.203Z,10.54
2022-10-11T18:14:00.297Z,10.52
2022-10-11T18:16:29.115Z,10.49
2022-10-11T18:18:56.873Z,10.43
2022-10-11T18:21:33.640Z,10.41
2022-10-11T18:24:03.783Z,10.43
2022-10-11T18:26:30.883Z,10.46
2022-10-11T18:28:58.521Z,10.44
2022-10-11T18:31:28.688Z,10.43
2022-10-11T18:33:55.550Z,10.42
2022-10-11T18:36:25.141Z,10.38
2022-10-11T18:38:56.810Z,10.33
2022-10-11T18:41:51.492Z,10.32
2022-10-11T18:44:19.549Z,10.37
2022-10-11T18:46:46.243Z,10.31
2022-10-11T18:49:13.409Z,10.28
2022-10-11T18:51:42.348Z,10.23
2022-10-11T18:54:14.065Z,10.15
2022-10-11T18:57:33.320Z,10.12
2022-10-11T19:00:07.350Z,10.08
2022-10-11T19:02:39.055Z,10.01
2022-10-11T19:05:06.014Z,9.93
2022-10-11T19:07:32.873Z,9.89
2022-10-11T19:09:59.843Z,9.89
2022-10-11T19:12:26.731Z,9.94
2022-10-11T19:14:54.222Z,9.94
2022-10-11T19:17:22.233Z,9.88
2022-10-11T19:19:49.383Z,9.76
2022-10-11T19:22:15.972Z,9.74
2022-10-11T19:24:43.141Z,9.77
2022-10-11T19:27:09.538Z,9.78
2022-10-11T19:29:36.452Z,9.73
2022-10-11T19:32:03.114Z,9.79
2022-10-11T19:34:31.113Z,9.79
2022-10-11T19:37:00.063Z,9.75
2022-10-11T19:39:27.405Z,9.70
2022-10-11T19:41:53.922Z,9.62
2022-10-11T19:44:20.619Z,9.58
2022-10-11T19:46:54.121Z,9.57
2022-10-11T19:49:24.221Z,9.48
2022-10-11T19:51:52.467Z,9.40
2022-10-11T19:54:19.250Z,9.37
2022-10-11T19:56:46.201Z,9.35
2022-10-11T19:59:13.948Z,9.30
2022-10-11T20:01:41.658Z,9.28
2022-10-11T20:04:22.674Z,9.26
2022-10-11T20:06:59.540Z,9.36
2022-10-11T20:09:30.554Z,9.24
2022-10-11T20:11:58.160Z,9.21
2022-10-11T20:14:24.893Z,9.22
2022-10-11T20:16:51.811Z,9.26
2022-10-11T20:19:18.828Z,9.12
2022-10-11T20:21:45.732Z,9.09
2022-10-11T20:24:12.560Z,9.05
2022-10-11T20:26:39.526Z,9.12
2022-10-11T20:29:06.642Z,8.98
2022-10-11T20:31:37.489Z,8.96
2022-10-11T20:34:06.771Z,8.83
2022-10-11T20:36:35.360Z,8.78
2022-10-11T20:39:02.027Z,8.75
2022-10-11T20:41:31.280Z,8.72
2022-10-11T20:44:00.707Z,8.67
2022-10-11T20:46:33.558Z,8.69
2022-10-11T20:49:03.548Z,8.63
2022-10-11T20:51:32.098Z,8.62
2022-10-11T20:54:00.002Z,8.57
2022-10-11T20:56:26.255Z,8.66
2022-10-11T20:58:54.760Z,8.65
2022-10-11T21:01:25.340Z,8.66
2022-10-11T21:03:52.047Z,8.59
2022-10-11T21:06:20.017Z,8.60
2022-10-11T21:08:46.472Z,8.51
2022-10-11T21:11:13.191Z,8.34
2022-10-11T21:13:40.122Z,8.26
2022-10-11T21:16:15.135Z,8.22
2022-10-11T21:18:41.701Z,8.29
2022-10-11T21:21:13.723Z,8.38
2022-10-11T21:23:40.760Z,8.25
2022-10-11T21:26:09.358Z,8.23
2022-10-11T21:28:36.388Z,8.21
2022-10-11T21:31:08.126Z,8.18
2022-10-11T21:33:35.131Z,8.18
2022-10-11T21:36:06.798Z,8.13
2022-10-11T21:38:34.233Z,8.10
2022-10-11T21:41:05.797Z,8.09
2022-10-11T21:43:34.437Z,8.09
2022-10-11T21:46:11.563Z,8.02
2022-10-11T21:48:38.540Z,8.01
2022-10-11T21:51:05.624Z,8.06
2022-10-11T21:53:32.437Z,8.13
2022-10-11T21:55:59.737Z,8.10
2022-10-11T21:58:26.919Z,8.15
2022-10-11T22:00:53.653Z,8.12
2022-10-11T22:03:19.869Z,8.41
2022-10-11T22:05:46.961Z,8.41
2022-10-11T22:08:14.854Z,8.38
2022-10-11T22:10:52.436Z,8.27
2022-10-11T22:13:19.280Z,8.22
2022-10-11T22:15:45.616Z,8.14
2022-10-11T22:18:11.949Z,8.08
2022-10-11T22:20:38.632Z,7.96
2022-10-11T22:23:04.928Z,7.92
2022-10-11T22:25:34.821Z,7.89
2022-10-11T22:28:01.284Z,7.95
2022-10-11T22:30:27.591Z,7.94
2022-10-11T22:32:53.898Z,7.91
2022-10-11T22:35:20.378Z,7.92
2022-10-11T22:37:47.108Z,7.90
2022-10-11T22:40:15.041Z,7.88
2022-10-11T22:42:41.741Z,7.82
2022-10-11T22:45:08.718Z,7.88
2022-10-11T22:47:35.048Z,7.87
2022-10-11T22:50:01.563Z,7.90
2022-10-11T22:52:27.938Z,7.84
2022-10-11T22:54:54.664Z,7.80
2022-10-11T22:57:21.095Z,7.77
2022-10-11T22:59:47.297Z,7.69
2022-10-11T23:02:13.858Z,7.65
2022-10-11T23:04:40.336Z,7.68
2022-10-11T23:07:06.492Z,7.67
2022-10-11T23:09:57.578Z,7.63
2022-10-11T23:12:23.690Z,7.62
2022-10-11T23:14:49.888Z,7.55
2022-10-11T23:17:16.337Z,7.49
2022-10-11T23:19:42.530Z,7.50
2022-10-11T23:22:08.716Z,7.41
2022-10-11T23:24:35.160Z,7.38
2022-10-11T23:27:01.329Z,7.37
2022-10-11T23:29:32.860Z,7.40
2022-10-11T23:31:59.289Z,7.41
2022-10-11T23:34:25.486Z,7.38
2022-10-11T23:36:51.681Z,7.48
2022-10-11T23:39:18.067Z,7.35
2022-10-11T23:41:44.234Z,7.21
2022-10-11T23:44:10.577Z,7.22
2022-10-11T23:46:36.971Z,7.22
2022-10-11T23:49:03.371Z,7.32
2022-10-11T23:51:29.566Z,7.39
2022-10-11T23:53:56.025Z,7.35
2022-10-11T23:56:22.224Z,7.29
2022-10-11T23:58:48.584Z,7.32
